Terminal Aerodrome Forecast
Issued by NWS

Home | Current Version | Previous Version | Text Only | Print | Product List | Glossary On
Versions: 1 2 3 4 5 6 7 8 9 10 11 12 13 14 15
000
FTUS43 KEAX 281100
TAFMKC
TAF
KMKC 281120Z 2812/2912 11008KT P6SM OVC070
     FM281800 13011KT P6SM SCT100
     FM290900 17013G22KT P6SM BKN070=

USA.gov is the U.S. government's official web portal to all federal, state and local government web resources and services.